ANC weather

Ted Stevens Anchorage International Airport
Anchorage, Alaska, United States

Public forecast

Using degrees Fahrenheit for public forecast. Weather courtesy of forecast.io.

Current aviation weather report (METAR) for Ted Stevens Anchorage International Airport

Retrieved 2019/10/18 19:53 UTC (7 minutes ago):

PANC 181953Z 04005KT 10SM FEW075 BKN200 04/00 A2916

Aviation forecast (TAF) for Ted Stevens Anchorage International Airport

Retrieved 2019/10/18 18:24 UTC (2 hours ago):

TAF PANC 181721Z 1818/1924 VRB04KT P6SM SCT050 BKN100 FM190600 VRB03KT P6SM VCSH SCT025 OVC040